createdAt,value
2022-11-29T00:02:28.212Z,95848.19
2022-11-29T00:05:29.925Z,95849.88
2022-11-29T00:08:31.478Z,95841.22
2022-11-29T00:11:53.670Z,95848.91
2022-11-29T00:14:55.206Z,95843.47
2022-11-29T00:17:56.724Z,95840.81
2022-11-29T00:20:58.396Z,95844.88
2022-11-29T00:24:00.035Z,95839.59
2022-11-29T00:27:01.731Z,95841.94
2022-11-29T00:30:04.078Z,95844.47
2022-11-29T00:33:05.604Z,95837.34
2022-11-29T00:36:07.511Z,95842.41
2022-11-29T00:39:11.792Z,95840.59
2022-11-29T00:42:13.707Z,95837.78
2022-11-29T00:45:15.241Z,95837.66
2022-11-29T00:48:16.763Z,95835.84
2022-11-29T00:51:18.275Z,95832.22
2022-11-29T00:54:19.879Z,95837.41
2022-11-29T00:57:21.483Z,95832.09
2022-11-29T01:00:23.180Z,95828.31
2022-11-29T01:03:25.126Z,95834.47
2022-11-29T01:06:26.697Z,95836.13
2022-11-29T01:09:28.318Z,95835.16
2022-11-29T01:12:29.892Z,95830.84
2022-11-29T01:15:31.974Z,95824.56
2022-11-29T01:18:34.055Z,95838.66
2022-11-29T01:21:35.670Z,95829.88
2022-11-29T01:24:37.172Z,95826.13
2022-11-29T01:27:38.749Z,95823.47
2022-11-29T01:30:40.327Z,95830.16
2022-11-29T01:33:42.304Z,95828.34
2022-11-29T01:36:43.819Z,95834.47
2022-11-29T01:39:45.350Z,95825.69
2022-11-29T01:42:46.980Z,95827.38
2022-11-29T01:45:49.676Z,95827.25
2022-11-29T01:48:53.905Z,95829.91
2022-11-29T01:52:03.001Z,95822.63
2022-11-29T01:55:07.010Z,95829.59
2022-11-29T01:58:09.223Z,95824.03
2022-11-29T02:01:11.126Z,95818.75
2022-11-29T02:04:13.375Z,95829.22
2022-11-29T02:07:15.662Z,95823.75
2022-11-29T02:10:17.970Z,95818.47
2022-11-29T02:13:28.343Z,95819.28
2022-11-29T02:16:56.714Z,95823.34
2022-11-29T02:20:26.259Z,95808.44
2022-11-29T02:24:05.956Z,95814.28
2022-11-29T02:27:39.704Z,95818.59
2022-11-29T02:30:58.683Z,95818.47
2022-11-29T02:34:32.700Z,95816.53
2022-11-29T02:37:57.247Z,95812.06
2022-11-29T02:41:30.890Z,95811.78
2022-11-29T02:44:51.624Z,95815.25
2022-11-29T02:48:38.711Z,95812.47
2022-11-29T02:51:55.136Z,95810.66
2022-11-29T02:55:12.944Z,95813.06
2022-11-29T02:58:41.320Z,95808.72
2022-11-29T03:02:10.597Z,95815.41
2022-11-29T03:05:59.680Z,95818.06
2022-11-29T03:09:12.317Z,95820.44
2022-11-29T03:12:35.491Z,95810.69
2022-11-29T03:15:53.990Z,95818.63
2022-11-29T03:19:33.470Z,95817.50
2022-11-29T03:22:47.920Z,95822.13
2022-11-29T03:26:06.192Z,95821.81
2022-11-29T03:29:32.610Z,95828.81
2022-11-29T03:32:58.431Z,95830.47
2022-11-29T03:36:12.863Z,95838.44
2022-11-29T03:39:33.203Z,95833.00
2022-11-29T03:42:38.757Z,95841.78
2022-11-29T03:45:49.239Z,95840.78
2022-11-29T03:49:16.084Z,95839.13
2022-11-29T03:52:27.466Z,95836.31
2022-11-29T03:55:45.158Z,95838.97
2022-11-29T03:59:11.855Z,95843.31
2022-11-29T04:02:35.092Z,95844.13
2022-11-29T04:05:55.578Z,95833.66
2022-11-29T04:09:12.361Z,95826.69
2022-11-29T04:12:27.433Z,95833.53
2022-11-29T04:15:49.859Z,95834.38
2022-11-29T04:19:03.972Z,95835.09
2022-11-29T04:22:11.226Z,95835.22
2022-11-29T04:25:47.876Z,95837.59
2022-11-29T04:29:07.492Z,95827.25
2022-11-29T04:32:40.329Z,95831.47
2022-11-29T04:36:08.185Z,95833.09
2022-11-29T04:39:12.484Z,95840.09
2022-11-29T04:42:26.308Z,95837.31
2022-11-29T04:45:56.831Z,95843.44
2022-11-29T04:49:36.326Z,95832.31
2022-11-29T04:53:02.524Z,95853.06
2022-11-29T04:56:28.918Z,95845.13
2022-11-29T04:59:42.587Z,95851.13
2022-11-29T05:02:59.423Z,95854.75
2022-11-29T05:06:49.370Z,95854.63
2022-11-29T05:10:15.257Z,95852.66
2022-11-29T05:13:36.308Z,95858.78
2022-11-29T05:17:00.029Z,95860.59
2022-11-29T05:20:08.467Z,95859.09
2022-11-29T05:23:34.630Z,95867.72
2022-11-29T05:26:45.221Z,95865.34
2022-11-29T05:30:11.013Z,95867.56
2022-11-29T05:33:33.279Z,95864.94
2022-11-29T05:36:59.608Z,95869.38
2022-11-29T05:40:13.531Z,95872.19
2022-11-29T05:43:30.231Z,95867.88
2022-11-29T05:46:51.858Z,95874.81
2022-11-29T05:50:07.377Z,95877.47
2022-11-29T05:53:30.786Z,95883.22
2022-11-29T05:56:51.204Z,95884.72
2022-11-29T05:59:55.597Z,95882.78
2022-11-29T06:03:15.880Z,95883.63
2022-11-29T06:06:47.996Z,95886.41
2022-11-29T06:10:11.562Z,95883.75
2022-11-29T06:13:28.657Z,95893.41
2022-11-29T06:16:36.468Z,95888.66
2022-11-29T06:19:53.206Z,95900.13
2022-11-29T06:23:16.368Z,95896.19
2022-11-29T06:26:36.636Z,95898.56
2022-11-29T06:30:18.296Z,95902.75
2022-11-29T06:33:33.846Z,95911.53
2022-11-29T06:37:00.238Z,95906.22
2022-11-29T06:40:02.081Z,95906.22
2022-11-29T06:43:03.936Z,95904.56
2022-11-29T06:46:15.852Z,95910.69
2022-11-29T06:49:34.489Z,95908.03
2022-11-29T06:52:59.437Z,95915.03
2022-11-29T06:56:29.353Z,95915.88
2022-11-29T06:59:55.826Z,95914.91
2022-11-29T07:03:45.627Z,95912.63
2022-11-29T07:06:47.477Z,95922.97
2022-11-29T07:09:58.407Z,95924.78
2022-11-29T07:13:00.246Z,95917.69
2022-11-29T07:16:35.780Z,95927.31
2022-11-29T07:20:12.439Z,95938.63
2022-11-29T07:23:35.024Z,95930.66
2022-11-29T07:26:45.697Z,95933.16
2022-11-29T07:29:55.530Z,95936.66
2022-11-29T07:33:18.909Z,95938.34
2022-11-29T07:36:26.530Z,95929.41
2022-11-29T07:39:43.141Z,95936.28
2022-11-29T07:43:18.298Z,95936.16
2022-11-29T07:46:19.945Z,95934.31
2022-11-29T07:49:21.498Z,95934.03
2022-11-29T07:52:23.101Z,95932.22
2022-11-29T07:55:26.597Z,95939.22
2022-11-29T07:58:28.193Z,95941.72
2022-11-29T08:01:31.069Z,95942.28
2022-11-29T08:04:32.652Z,95942.13
2022-11-29T08:07:35.708Z,95944.50
2022-11-29T08:10:38.367Z,95944.22
2022-11-29T08:13:39.942Z,95939.19
2022-11-29T08:16:41.525Z,95946.59
2022-11-29T08:19:43.066Z,95944.63
2022-11-29T08:22:44.884Z,95954.25
2022-11-29T08:25:46.607Z,95954.13
2022-11-29T08:28:52.531Z,95965.44
2022-11-29T08:31:54.553Z,95954.84
2022-11-29T08:34:56.240Z,95959.16
2022-11-29T08:37:57.784Z,95957.50
2022-11-29T08:41:05.634Z,95966.84
2022-11-29T08:44:07.641Z,95973.94
2022-11-29T08:47:29.018Z,95965.03
2022-11-29T08:50:30.558Z,95966.69
2022-11-29T08:53:41.545Z,95973.38
2022-11-29T08:57:30.972Z,95968.78
2022-11-29T09:00:06.130Z,95968.66
2022-11-29T09:03:26.894Z,95974.22
2022-11-29T09:06:33.901Z,95974.94
2022-11-29T09:09:35.398Z,95981.06
2022-11-29T09:12:38.194Z,95977.31
2022-11-29T09:15:41.835Z,95980.81
2022-11-29T09:18:48.519Z,95979.66
2022-11-29T09:21:52.959Z,95981.22
2022-11-29T09:24:54.645Z,95974.94
2022-11-29T09:27:58.943Z,95994.34
2022-11-29T09:31:07.398Z,95993.34
2022-11-29T09:34:08.972Z,95995.88
2022-11-29T09:37:10.502Z,95993.34
2022-11-29T09:40:19.885Z,96001.03
2022-11-29T09:43:38.876Z,95997.41
2022-11-29T09:47:00.341Z,95998.13
2022-11-29T09:50:21.193Z,95992.94
2022-11-29T09:54:00.430Z,95992.94
2022-11-29T09:57:10.192Z,96001.59
2022-11-29T10:00:19.964Z,95996.97
2022-11-29T10:03:29.501Z,96004.09
2022-11-29T10:06:38.982Z,95992.50
2022-11-29T10:09:53.162Z,96001.88
2022-11-29T10:13:00.458Z,95997.53
2022-11-29T10:16:22.381Z,95993.75
2022-11-29T10:19:42.864Z,95990.53
2022-11-29T10:22:44.387Z,95990.41
2022-11-29T10:25:48.676Z,95990.09
2022-11-29T10:28:51.133Z,95987.75
2022-11-29T10:31:56.616Z,95982.13
2022-11-29T10:35:00.852Z,95988.84
2022-11-29T10:41:27.146Z,95979.59
2022-11-29T10:44:31.294Z,95982.25
2022-11-29T10:47:33.140Z,95982.13
2022-11-29T10:50:36.220Z,95975.00
2022-11-29T10:53:37.841Z,95981.16
2022-11-29T10:56:40.423Z,95986.16
2022-11-29T10:59:57.557Z,95980.72
2022-11-29T11:03:16.830Z,95985.19
2022-11-29T11:06:19.612Z,95985.75
2022-11-29T11:09:34.148Z,95993.47
2022-11-29T11:12:37.043Z,95988.13
2022-11-29T11:15:38.535Z,95984.34
2022-11-29T11:18:40.279Z,95988.53
2022-11-29T11:21:41.810Z,95988.41
2022-11-29T11:24:44.646Z,95990.22
2022-11-29T11:27:47.246Z,95979.47
2022-11-29T11:31:09.938Z,95995.09
2022-11-29T11:34:31.728Z,95990.63
2022-11-29T11:37:35.644Z,95992.16
2022-11-29T11:40:37.197Z,95993.13
2022-11-29T11:43:39.559Z,95992.03
2022-11-29T11:46:50.111Z,95995.66
2022-11-29T11:50:04.474Z,95997.03
2022-11-29T11:53:17.642Z,95999.41
2022-11-29T11:56:19.873Z,96001.75
2022-11-29T11:59:26.537Z,95996.16
2022-11-29T12:02:40.422Z,96006.47
2022-11-29T12:05:44.933Z,96007.19
2022-11-29T12:08:49.538Z,96009.84
2022-11-29T12:12:00.247Z,96013.19
2022-11-29T12:15:10.665Z,96010.41
2022-11-29T12:18:19.662Z,96007.56
2022-11-29T12:21:25.680Z,96010.22
2022-11-29T12:24:39.206Z,96010.94
2022-11-29T12:27:40.769Z,96010.94
2022-11-29T12:30:50.922Z,96010.94
2022-11-29T12:34:19.605Z,96020.31
2022-11-29T12:37:42.181Z,96015.66
2022-11-29T12:41:05.416Z,96019.03
2022-11-29T12:44:12.742Z,96016.50
2022-11-29T12:47:45.233Z,96013.59
2022-11-29T12:50:50.428Z,96019.03
2022-11-29T12:54:18.455Z,96018.03
2022-11-29T12:57:44.548Z,96023.22
2022-11-29T13:01:02.726Z,96018.03
2022-11-29T13:04:13.472Z,96019.41
2022-11-29T13:07:34.850Z,96019.28
2022-11-29T13:11:14.533Z,96025.56
2022-11-29T13:18:10.995Z,96029.53
2022-11-29T13:21:16.246Z,96029.66
2022-11-29T13:24:23.723Z,96030.63
2022-11-29T13:27:41.378Z,96034.28
2022-11-29T13:30:43.016Z,96027.44
2022-11-29T13:34:08.290Z,96037.25
2022-11-29T13:37:18.903Z,96034.56
2022-11-29T13:40:50.916Z,96031.66
2022-11-29T13:44:02.784Z,96034.56
2022-11-29T13:47:10.813Z,96037.25
2022-11-29T13:50:39.139Z,96044.22
2022-11-29T13:57:08.953Z,96038.59
2022-11-29T14:00:32.357Z,96049.25
2022-11-29T14:03:42.110Z,96045.91
2022-11-29T14:06:43.724Z,96050.53
2022-11-29T14:09:55.800Z,96049.81
2022-11-29T14:12:59.841Z,96048.16
2022-11-29T14:16:04.815Z,96058.91
2022-11-29T14:19:20.025Z,96062.59
2022-11-29T14:22:22.403Z,96063.84
2022-11-29T14:25:50.649Z,96061.47
2022-11-29T14:28:47.497Z,96065.78
2022-11-29T14:31:54.923Z,96065.13
2022-11-29T14:35:11.793Z,96063.72
2022-11-29T14:38:23.969Z,96070.16
2022-11-29T14:41:56.590Z,96066.94
2022-11-29T14:45:04.624Z,96069.06
2022-11-29T14:48:25.852Z,96078.16
2022-11-29T14:51:32.601Z,96081.91
2022-11-29T14:54:35.437Z,96088.38
2022-11-29T14:57:54.187Z,96085.13
2022-11-29T15:01:08.141Z,96074.94
2022-11-29T15:04:12.583Z,96086.69
2022-11-29T15:07:19.282Z,96081.81
2022-11-29T15:10:28.232Z,96090.03
2022-11-29T15:13:32.840Z,96089.63
2022-11-29T15:16:45.465Z,96101.66
2022-11-29T15:20:35.219Z,96101.09
2022-11-29T15:23:42.540Z,96100.53
2022-11-29T15:27:02.068Z,96099.84
2022-11-29T15:30:39.696Z,96103.72
2022-11-29T15:33:43.616Z,96100.53
2022-11-29T15:36:45.221Z,96107.66
2022-11-29T15:39:46.872Z,96107.78
2022-11-29T15:43:14.087Z,96111.69
2022-11-29T15:46:20.615Z,96112.09
2022-11-29T15:49:27.319Z,96119.63
2022-11-29T15:52:33.831Z,96126.47
2022-11-29T15:55:35.741Z,96135.28
2022-11-29T15:58:37.420Z,96133.72
2022-11-29T16:01:40.479Z,96137.63
2022-11-29T16:04:46.872Z,96133.44
2022-11-29T16:07:53.255Z,96135.25
2022-11-29T16:10:55.593Z,96133.59
2022-11-29T16:14:21.895Z,96138.06
2022-11-29T16:17:41.753Z,96142.66
2022-11-29T16:20:45.407Z,96140.41
2022-11-29T16:23:47.018Z,96153.69
2022-11-29T16:26:50.061Z,96148.63
2022-11-29T16:29:55.063Z,96152.34
2022-11-29T16:33:03.396Z,96155.97
2022-11-29T16:36:16.370Z,96155.28
2022-11-29T16:39:23.600Z,96158.91
2022-11-29T16:42:30.216Z,96157.22
2022-11-29T16:45:33.883Z,96161.56
2022-11-29T16:48:38.291Z,96164.34
2022-11-29T16:51:48.009Z,96162.94
2022-11-29T16:54:49.572Z,96168.66
2022-11-29T16:57:52.178Z,96165.88
2022-11-29T17:00:54.184Z,96167.69
2022-11-29T17:23:49.713Z,96174.50
2022-11-29T17:26:51.650Z,96171.88
2022-11-29T17:29:53.266Z,96172.00
2022-11-29T17:32:54.891Z,96176.44
2022-11-29T17:35:56.457Z,96178.38
2022-11-29T17:39:02.196Z,96177.53
2022-11-29T17:42:03.786Z,96183.00
2022-11-29T17:45:05.654Z,96194.47
2022-11-29T17:48:07.265Z,96200.72
2022-11-29T17:51:28.837Z,96186.88
2022-11-29T17:54:33.038Z,96207.00
2022-11-29T17:57:34.734Z,96201.09
2022-11-29T18:00:36.580Z,96192.47
2022-11-29T18:03:40.358Z,96198.59
2022-11-29T18:06:42.111Z,96200.53
2022-11-29T18:09:44.193Z,96197.91
2022-11-29T18:12:46.041Z,96196.22
2022-11-29T18:15:47.558Z,96198.28
2022-11-29T18:18:55.939Z,96202.59
2022-11-29T18:21:57.483Z,96208.63
2022-11-29T18:25:16.139Z,96203.56
2022-11-29T18:28:20.570Z,96199.41
2022-11-29T18:31:28.295Z,96209.41
2022-11-29T18:34:29.899Z,96220.84
2022-11-29T18:38:05.087Z,96221.13
2022-11-29T18:40:53.096Z,96218.72
2022-11-29T18:44:00.508Z,96225.84
2022-11-29T18:47:03.900Z,96226.94
2022-11-29T18:50:06.111Z,96234.06
2022-11-29T18:53:07.664Z,96241.28
2022-11-29T18:56:17.411Z,96236.25
2022-11-29T18:59:19.028Z,96233.16
2022-11-29T19:02:20.664Z,96238.69
2022-11-29T19:05:22.214Z,96241.63
2022-11-29T19:08:25.475Z,96246.19
2022-11-29T19:11:29.195Z,96245.63
2022-11-29T19:14:32.341Z,96250.34
2022-11-29T19:17:36.565Z,96255.31
2022-11-29T19:20:41.732Z,96251.09
2022-11-29T19:23:44.559Z,96253.88
2022-11-29T19:26:47.455Z,96255.94
2022-11-29T19:29:50.938Z,96254.00
2022-11-29T19:32:52.700Z,96255.94
2022-11-29T19:35:54.259Z,96262.06
2022-11-29T19:38:59.696Z,96246.81
2022-11-29T19:42:08.210Z,96268.22
2022-11-29T19:45:18.685Z,96271.09
2022-11-29T19:48:20.367Z,96268.59
2022-11-29T19:51:23.300Z,96281.00
2022-11-29T19:54:24.966Z,96285.47
2022-11-29T19:57:29.698Z,96277.63
2022-11-29T20:00:31.470Z,96289.91
2022-11-29T20:03:35.692Z,96293.66
2022-11-29T20:06:37.757Z,96293.19
2022-11-29T20:09:39.445Z,96294.28
2022-11-29T20:12:40.999Z,96286.31
2022-11-29T20:15:42.614Z,96288.97
2022-11-29T20:18:50.328Z,96274.78
2022-11-29T20:21:52.408Z,96273.81
2022-11-29T20:24:54.668Z,96278.25
2022-11-29T20:27:56.285Z,96272.97
2022-11-29T20:31:05.067Z,96283.56
2022-11-29T20:34:07.163Z,96278.25
2022-11-29T20:37:45.642Z,96282.47
2022-11-29T20:41:04.789Z,96286.09
2022-11-29T20:44:06.582Z,96279.09
2022-11-29T20:47:13.989Z,96294.16
2022-11-29T20:50:23.503Z,96298.59
2022-11-29T20:53:34.036Z,96293.44
2022-11-29T20:56:35.562Z,96303.06
2022-11-29T20:59:37.247Z,96296.19
2022-11-29T21:02:41.540Z,96286.84
2022-11-29T21:05:44.163Z,96296.59
2022-11-29T21:08:45.829Z,96293.69
2022-11-29T21:11:47.694Z,96300.06
2022-11-29T21:14:49.581Z,96301.03
2022-11-29T21:17:51.567Z,96299.34
2022-11-29T21:21:38.243Z,96299.47
2022-11-29T21:24:42.454Z,96297.94
2022-11-29T21:27:44.352Z,96293.13
2022-11-29T21:30:46.148Z,96296.47
2022-11-29T21:33:48.187Z,96311.66
2022-11-29T21:36:58.004Z,96308.41
2022-11-29T21:39:59.510Z,96301.44
2022-11-29T21:43:01.136Z,96297.25
2022-11-29T21:46:02.829Z,96295.66
2022-11-29T21:49:04.966Z,96289.81
2022-11-29T21:52:06.964Z,96289.19
2022-11-29T21:55:08.952Z,96293.53
2022-11-29T21:58:10.585Z,96303.50
2022-11-29T22:01:15.649Z,96299.44
2022-11-29T22:04:17.465Z,96303.16
2022-11-29T22:07:19.022Z,96306.06
2022-11-29T22:10:20.616Z,96305.44
2022-11-29T22:13:22.161Z,96303.66
2022-11-29T22:16:24.039Z,96305.72
2022-11-29T22:19:26.986Z,96306.78
2022-11-29T22:22:28.651Z,96309.81
2022-11-29T22:25:30.256Z,96310.75
2022-11-29T22:28:32.188Z,96313.75
2022-11-29T22:31:35.236Z,96314.59
2022-11-29T22:34:36.840Z,96310.63
2022-11-29T22:37:38.425Z,96316.03
2022-11-29T22:40:40.525Z,96311.00
2022-11-29T22:43:42.863Z,96317.97
2022-11-29T22:46:44.461Z,96310.16
2022-11-29T22:49:46.041Z,96312.91
2022-11-29T22:52:47.590Z,96313.03
2022-11-29T22:55:49.168Z,96318.56
2022-11-29T22:58:51.165Z,96321.06
2022-11-29T23:01:52.925Z,96311.47
2022-11-29T23:04:54.557Z,96314.94
2022-11-29T23:07:56.163Z,96315.19
2022-11-29T23:10:58.644Z,96315.09
2022-11-29T23:14:00.375Z,96313.28
2022-11-29T23:17:01.920Z,96317.13
2022-11-29T23:20:03.758Z,96317.13
2022-11-29T23:23:05.700Z,96318.31
2022-11-29T23:26:09.140Z,96323.50
2022-11-29T23:29:13.153Z,96319.16
2022-11-29T23:32:14.688Z,96316.63
2022-11-29T23:35:16.262Z,96297.66
2022-11-29T23:38:18.370Z,96314.94
2022-11-29T23:41:19.963Z,96313.25
2022-11-29T23:44:21.467Z,96302.94
2022-11-29T23:47:23.061Z,96297.75
2022-11-29T23:50:24.637Z,96288.16
2022-11-29T23:53:26.181Z,96302.31
2022-11-29T23:56:28.006Z,96294.63
2022-11-29T23:59:29.508Z,96291.97
